sensor_id;sensor_type;location;lat;lon;timestamp;temperature;humidity
13684;DHT22;6914;53.552;9.908;2023-02-26T00:00:49;-1.10;99.90
13684;DHT22;6914;53.552;9.908;2023-02-26T00:03:17;-1.30;99.90
13684;DHT22;6914;53.552;9.908;2023-02-26T00:05:44;-1.40;99.90
13684;DHT22;6914;53.552;9.908;2023-02-26T00:08:11;-1.30;99.90
13684;DHT22;6914;53.552;9.908;2023-02-26T00:10:37;-1.50;99.90
13684;DHT22;6914;53.552;9.908;2023-02-26T00:13:09;-1.40;99.90
13684;DHT22;6914;53.552;9.908;2023-02-26T00:15:37;-1.40;99.90
13684;DHT22;6914;53.552;9.908;2023-02-26T00:18:06;-1.30;99.90
13684;DHT22;6914;53.552;9.908;2023-02-26T00:20:38;-1.30;99.90
13684;DHT22;6914;53.552;9.908;2023-02-26T00:23:07;-1.40;99.90
13684;DHT22;6914;53.552;9.908;2023-02-26T00:25:35;-1.60;99.90
13684;DHT22;6914;53.552;9.908;2023-02-26T00:28:03;-1.40;99.90
13684;DHT22;6914;53.552;9.908;2023-02-26T00:30:30;-1.30;99.90
13684;DHT22;6914;53.552;9.908;2023-02-26T00:32:58;-1.40;99.90
13684;DHT22;6914;53.552;9.908;2023-02-26T00:35:25;-1.60;99.90
13684;DHT22;6914;53.552;9.908;2023-02-26T00:38:01;-1.50;99.90
13684;DHT22;6914;53.552;9.908;2023-02-26T00:40:38;-1.50;99.90
13684;DHT22;6914;53.552;9.908;2023-02-26T00:43:13;-1.50;99.90
13684;DHT22;6914;53.552;9.908;2023-02-26T00:45:44;-1.50;99.90
13684;DHT22;6914;53.552;9.908;2023-02-26T00:48:26;-1.50;99.90
13684;DHT22;6914;53.552;9.908;2023-02-26T00:50:59;-1.50;99.90
13684;DHT22;6914;53.552;9.908;2023-02-26T00:53:35;0.30;99.90
13684;DHT22;6914;53.552;9.908;2023-02-26T00:56:03;-1.60;99.90
13684;DHT22;6914;53.552;9.908;2023-02-26T00:58:30;-1.60;99.90
13684;DHT22;6914;53.552;9.908;2023-02-26T01:00:58;-1.20;99.90
13684;DHT22;6914;53.552;9.908;2023-02-26T01:03:25;-1.40;99.90
13684;DHT22;6914;53.552;9.908;2023-02-26T01:05:53;-1.50;99.90
13684;DHT22;6914;53.552;9.908;2023-02-26T01:08:29;-1.60;99.90
13684;DHT22;6914;53.552;9.908;2023-02-26T01:10:57;-1.50;99.90
13684;DHT22;6914;53.552;9.908;2023-02-26T01:13:25;-1.30;99.90
13684;DHT22;6914;53.552;9.908;2023-02-26T01:15:56;-1.20;99.90
13684;DHT22;6914;53.552;9.908;2023-02-26T01:18:29;-1.50;99.90
13684;DHT22;6914;53.552;9.908;2023-02-26T01:21:02;-1.40;99.90
13684;DHT22;6914;53.552;9.908;2023-02-26T01:23:32;-1.20;99.90
13684;DHT22;6914;53.552;9.908;2023-02-26T01:26:04;-1.20;99.90
13684;DHT22;6914;53.552;9.908;2023-02-26T01:28:41;-1.10;99.90
13684;DHT22;6914;53.552;9.908;2023-02-26T01:31:17;-1.10;99.90
13684;DHT22;6914;53.552;9.908;2023-02-26T01:33:48;-1.10;99.90
13684;DHT22;6914;53.552;9.908;2023-02-26T01:36:20;-1.00;99.90
13684;DHT22;6914;53.552;9.908;2023-02-26T01:38:52;-1.00;99.90
13684;DHT22;6914;53.552;9.908;2023-02-26T01:41:28;-1.10;99.90
13684;DHT22;6914;53.552;9.908;2023-02-26T01:44:13;-1.10;99.90
13684;DHT22;6914;53.552;9.908;2023-02-26T01:46:54;-1.00;99.90
13684;DHT22;6914;53.552;9.908;2023-02-26T01:49:23;-1.00;99.90
13684;DHT22;6914;53.552;9.908;2023-02-26T01:51:51;-1.00;99.90
13684;DHT22;6914;53.552;9.908;2023-02-26T01:54:21;-1.00;99.90
13684;DHT22;6914;53.552;9.908;2023-02-26T01:56:51;-1.00;99.90
13684;DHT22;6914;53.552;9.908;2023-02-26T01:59:19;-1.10;99.90
13684;DHT22;6914;53.552;9.908;2023-02-26T02:01:49;-1.10;99.90
13684;DHT22;6914;53.552;9.908;2023-02-26T02:04:18;0.10;99.90
13684;DHT22;6914;53.552;9.908;2023-02-26T02:06:45;-2.60;99.90
13684;DHT22;6914;53.552;9.908;2023-02-26T02:09:13;-1.20;99.90
13684;DHT22;6914;53.552;9.908;2023-02-26T02:11:52;-1.30;99.90
13684;DHT22;6914;53.552;9.908;2023-02-26T02:14:29;0.10;99.90
13684;DHT22;6914;53.552;9.908;2023-02-26T02:17:01;-1.40;99.90
13684;DHT22;6914;53.552;9.908;2023-02-26T02:19:54;-1.40;99.90
13684;DHT22;6914;53.552;9.908;2023-02-26T02:22:39;-1.40;99.90
13684;DHT22;6914;53.552;9.908;2023-02-26T02:25:25;-1.60;99.90
13684;DHT22;6914;53.552;9.908;2023-02-26T02:28:04;-1.50;99.90
13684;DHT22;6914;53.552;9.908;2023-02-26T02:30:55;-1.60;99.90
13684;DHT22;6914;53.552;9.908;2023-02-26T02:33:25;-1.60;99.90
13684;DHT22;6914;53.552;9.908;2023-02-26T02:35:58;-1.60;99.90
13684;DHT22;6914;53.552;9.908;2023-02-26T02:38:31;-1.60;99.90
13684;DHT22;6914;53.552;9.908;2023-02-26T02:41:04;-3.10;99.90
13684;DHT22;6914;53.552;9.908;2023-02-26T02:43:33;-1.60;99.90
13684;DHT22;6914;53.552;9.908;2023-02-26T02:46:06;-1.50;99.90
13684;DHT22;6914;53.552;9.908;2023-02-26T02:48:37;-1.60;99.90
13684;DHT22;6914;53.552;9.908;2023-02-26T02:51:07;-1.60;99.90
13684;DHT22;6914;53.552;9.908;2023-02-26T02:53:43;-1.70;99.90
13684;DHT22;6914;53.552;9.908;2023-02-26T02:56:16;-2.00;99.90
13684;DHT22;6914;53.552;9.908;2023-02-26T02:58:48;-1.60;99.90
13684;DHT22;6914;53.552;9.908;2023-02-26T03:01:20;-1.40;99.90
13684;DHT22;6914;53.552;9.908;2023-02-26T03:03:54;-1.70;99.90
13684;DHT22;6914;53.552;9.908;2023-02-26T03:06:22;-1.80;99.90
13684;DHT22;6914;53.552;9.908;2023-02-26T03:08:49;-1.80;99.90
13684;DHT22;6914;53.552;9.908;2023-02-26T03:11:17;-1.70;99.90
13684;DHT22;6914;53.552;9.908;2023-02-26T03:13:45;-1.80;99.90
13684;DHT22;6914;53.552;9.908;2023-02-26T03:16:31;-1.80;99.90
13684;DHT22;6914;53.552;9.908;2023-02-26T03:19:03;-1.80;99.90
13684;DHT22;6914;53.552;9.908;2023-02-26T03:21:41;-1.80;99.90
13684;DHT22;6914;53.552;9.908;2023-02-26T03:24:18;-2.00;99.90
13684;DHT22;6914;53.552;9.908;2023-02-26T03:26:55;-1.80;99.90
13684;DHT22;6914;53.552;9.908;2023-02-26T03:29:28;-1.50;99.90
13684;DHT22;6914;53.552;9.908;2023-02-26T03:32:04;-2.00;99.90
13684;DHT22;6914;53.552;9.908;2023-02-26T03:34:38;-1.10;99.90
13684;DHT22;6914;53.552;9.908;2023-02-26T03:37:14;-1.90;99.90
13684;DHT22;6914;53.552;9.908;2023-02-26T03:39:46;-1.90;99.90
13684;DHT22;6914;53.552;9.908;2023-02-26T03:42:19;-1.90;99.90
13684;DHT22;6914;53.552;9.908;2023-02-26T03:44:51;-2.00;99.90
13684;DHT22;6914;53.552;9.908;2023-02-26T03:47:20;-1.80;99.90
13684;DHT22;6914;53.552;9.908;2023-02-26T03:49:50;-2.00;99.90
13684;DHT22;6914;53.552;9.908;2023-02-26T03:52:19;-1.50;99.90
13684;DHT22;6914;53.552;9.908;2023-02-26T03:54:50;-2.00;99.90
13684;DHT22;6914;53.552;9.908;2023-02-26T03:57:20;-2.00;99.90
13684;DHT22;6914;53.552;9.908;2023-02-26T03:59:47;-2.00;99.90
13684;DHT22;6914;53.552;9.908;2023-02-26T04:02:16;-1.90;99.90
13684;DHT22;6914;53.552;9.908;2023-02-26T04:04:48;-2.00;99.90
13684;DHT22;6914;53.552;9.908;2023-02-26T04:07:17;-2.20;99.90
13684;DHT22;6914;53.552;9.908;2023-02-26T04:09:46;-0.70;99.90
13684;DHT22;6914;53.552;9.908;2023-02-26T04:12:13;-2.10;99.90
13684;DHT22;6914;53.552;9.908;2023-02-26T04:14:40;-2.00;99.90
13684;DHT22;6914;53.552;9.908;2023-02-26T04:17:07;-2.00;99.90
13684;DHT22;6914;53.552;9.908;2023-02-26T04:19:35;-2.00;99.90
13684;DHT22;6914;53.552;9.908;2023-02-26T04:22:03;-2.00;99.90
13684;DHT22;6914;53.552;9.908;2023-02-26T04:24:30;-2.00;99.90
13684;DHT22;6914;53.552;9.908;2023-02-26T04:26:57;-2.00;99.90
13684;DHT22;6914;53.552;9.908;2023-02-26T04:29:24;-1.80;99.90
13684;DHT22;6914;53.552;9.908;2023-02-26T04:31:50;-2.00;99.90
13684;DHT22;6914;53.552;9.908;2023-02-26T04:34:17;-2.30;99.90
13684;DHT22;6914;53.552;9.908;2023-02-26T04:36:44;-2.20;99.90
13684;DHT22;6914;53.552;9.908;2023-02-26T04:39:17;-1.80;99.90
13684;DHT22;6914;53.552;9.908;2023-02-26T04:41:44;-2.20;99.90
13684;DHT22;6914;53.552;9.908;2023-02-26T04:44:14;-2.30;99.90
13684;DHT22;6914;53.552;9.908;2023-02-26T04:46:41;-2.20;99.90
13684;DHT22;6914;53.552;9.908;2023-02-26T04:49:08;-2.20;99.90
13684;DHT22;6914;53.552;9.908;2023-02-26T04:51:37;-2.20;99.90
13684;DHT22;6914;53.552;9.908;2023-02-26T04:54:04;-2.20;99.90
13684;DHT22;6914;53.552;9.908;2023-02-26T04:56:32;-2.30;99.90
13684;DHT22;6914;53.552;9.908;2023-02-26T04:58:59;-1.90;99.90
13684;DHT22;6914;53.552;9.908;2023-02-26T05:01:25;-2.30;99.90
13684;DHT22;6914;53.552;9.908;2023-02-26T05:03:52;-2.00;99.90
13684;DHT22;6914;53.552;9.908;2023-02-26T05:06:19;-2.20;99.90
13684;DHT22;6914;53.552;9.908;2023-02-26T05:08:46;-1.80;99.90
13684;DHT22;6914;53.552;9.908;2023-02-26T05:11:13;-2.10;99.90
13684;DHT22;6914;53.552;9.908;2023-02-26T05:13:41;-2.30;99.90
13684;DHT22;6914;53.552;9.908;2023-02-26T05:16:08;-2.50;99.90
13684;DHT22;6914;53.552;9.908;2023-02-26T05:18:35;-2.40;99.90
13684;DHT22;6914;53.552;9.908;2023-02-26T05:21:02;-2.40;99.90
13684;DHT22;6914;53.552;9.908;2023-02-26T05:23:30;-2.50;99.90
13684;DHT22;6914;53.552;9.908;2023-02-26T05:25:57;-2.50;99.90
13684;DHT22;6914;53.552;9.908;2023-02-26T05:28:24;-2.50;99.90
13684;DHT22;6914;53.552;9.908;2023-02-26T05:30:55;-2.50;99.90
13684;DHT22;6914;53.552;9.908;2023-02-26T05:33:21;-2.50;99.90
13684;DHT22;6914;53.552;9.908;2023-02-26T05:35:48;-2.20;99.90
13684;DHT22;6914;53.552;9.908;2023-02-26T05:38:15;-2.50;99.90
13684;DHT22;6914;53.552;9.908;2023-02-26T05:40:42;-2.70;99.90
13684;DHT22;6914;53.552;9.908;2023-02-26T05:43:09;-2.50;99.90
13684;DHT22;6914;53.552;9.908;2023-02-26T05:45:39;-0.90;99.90
13684;DHT22;6914;53.552;9.908;2023-02-26T05:48:08;-2.60;99.90
13684;DHT22;6914;53.552;9.908;2023-02-26T05:50:35;-2.50;99.90
13684;DHT22;6914;53.552;9.908;2023-02-26T05:53:02;-2.50;99.90
13684;DHT22;6914;53.552;9.908;2023-02-26T05:55:29;-2.50;99.90
13684;DHT22;6914;53.552;9.908;2023-02-26T05:57:56;-2.50;99.90
13684;DHT22;6914;53.552;9.908;2023-02-26T06:00:23;-2.50;99.90
13684;DHT22;6914;53.552;9.908;2023-02-26T06:02:50;-2.50;99.90
13684;DHT22;6914;53.552;9.908;2023-02-26T06:05:18;-2.10;99.90
13684;DHT22;6914;53.552;9.908;2023-02-26T06:07:45;-2.50;99.90
13684;DHT22;6914;53.552;9.908;2023-02-26T06:10:12;-2.70;99.90
13684;DHT22;6914;53.552;9.908;2023-02-26T06:12:38;-2.50;99.90
13684;DHT22;6914;53.552;9.908;2023-02-26T06:15:06;-2.50;99.90
13684;DHT22;6914;53.552;9.908;2023-02-26T06:17:33;-2.60;99.90
13684;DHT22;6914;53.552;9.908;2023-02-26T06:20:00;-2.50;99.90
13684;DHT22;6914;53.552;9.908;2023-02-26T06:22:29;-2.60;99.90
13684;DHT22;6914;53.552;9.908;2023-02-26T06:24:56;-2.60;99.90
13684;DHT22;6914;53.552;9.908;2023-02-26T06:27:23;-2.30;99.90
13684;DHT22;6914;53.552;9.908;2023-02-26T06:29:50;-2.50;99.90
13684;DHT22;6914;53.552;9.908;2023-02-26T06:32:16;-2.50;99.90
13684;DHT22;6914;53.552;9.908;2023-02-26T06:34:43;-2.20;99.90
13684;DHT22;6914;53.552;9.908;2023-02-26T06:37:12;-2.40;99.90
13684;DHT22;6914;53.552;9.908;2023-02-26T06:39:40;-2.50;99.90
13684;DHT22;6914;53.552;9.908;2023-02-26T06:42:07;-2.00;99.90
13684;DHT22;6914;53.552;9.908;2023-02-26T06:44:35;-1.70;99.90
13684;DHT22;6914;53.552;9.908;2023-02-26T06:47:02;-2.30;99.90
13684;DHT22;6914;53.552;9.908;2023-02-26T06:49:29;-2.30;99.90
13684;DHT22;6914;53.552;9.908;2023-02-26T06:51:56;-2.30;99.90
13684;DHT22;6914;53.552;9.908;2023-02-26T06:54:22;-2.30;99.90
13684;DHT22;6914;53.552;9.908;2023-02-26T06:56:51;-1.90;99.90
13684;DHT22;6914;53.552;9.908;2023-02-26T06:59:22;-2.20;99.90
13684;DHT22;6914;53.552;9.908;2023-02-26T07:01:48;-2.20;99.90
13684;DHT22;6914;53.552;9.908;2023-02-26T07:04:15;-1.70;99.90
13684;DHT22;6914;53.552;9.908;2023-02-26T07:06:42;-2.20;99.90
13684;DHT22;6914;53.552;9.908;2023-02-26T07:09:09;-1.80;99.90
13684;DHT22;6914;53.552;9.908;2023-02-26T07:11:39;-1.60;99.90
13684;DHT22;6914;53.552;9.908;2023-02-26T07:14:08;-1.50;99.90
13684;DHT22;6914;53.552;9.908;2023-02-26T07:16:34;-1.70;99.90
13684;DHT22;6914;53.552;9.908;2023-02-26T07:19:01;-1.30;99.90
13684;DHT22;6914;53.552;9.908;2023-02-26T07:21:28;-1.00;99.90
13684;DHT22;6914;53.552;9.908;2023-02-26T07:23:55;-1.20;99.90
13684;DHT22;6914;53.552;9.908;2023-02-26T07:26:21;-1.20;99.90
13684;DHT22;6914;53.552;9.908;2023-02-26T07:28:48;-1.40;99.90
13684;DHT22;6914;53.552;9.908;2023-02-26T07:31:16;-1.20;99.90
13684;DHT22;6914;53.552;9.908;2023-02-26T07:33:43;-1.10;99.90
13684;DHT22;6914;53.552;9.908;2023-02-26T07:36:15;0.30;99.90
13684;DHT22;6914;53.552;9.908;2023-02-26T07:38:42;-1.30;99.90
13684;DHT22;6914;53.552;9.908;2023-02-26T07:41:09;-0.50;99.90
13684;DHT22;6914;53.552;9.908;2023-02-26T07:43:39;-0.90;99.90
13684;DHT22;6914;53.552;9.908;2023-02-26T07:46:07;-1.00;99.90
13684;DHT22;6914;53.552;9.908;2023-02-26T07:48:36;-1.20;99.90
13684;DHT22;6914;53.552;9.908;2023-02-26T07:51:03;-1.10;99.90
13684;DHT22;6914;53.552;9.908;2023-02-26T07:53:31;-1.20;99.90
13684;DHT22;6914;53.552;9.908;2023-02-26T07:55:58;-1.20;99.90
13684;DHT22;6914;53.552;9.908;2023-02-26T07:58:25;-1.10;99.90
13684;DHT22;6914;53.552;9.908;2023-02-26T08:00:52;-1.00;99.90
13684;DHT22;6914;53.552;9.908;2023-02-26T08:03:19;-0.80;99.90
13684;DHT22;6914;53.552;9.908;2023-02-26T08:05:47;0.70;99.90
13684;DHT22;6914;53.552;9.908;2023-02-26T08:08:14;-0.60;99.90
13684;DHT22;6914;53.552;9.908;2023-02-26T08:10:41;-0.60;99.90
13684;DHT22;6914;53.552;9.908;2023-02-26T08:13:08;-0.60;99.90
13684;DHT22;6914;53.552;9.908;2023-02-26T08:15:35;-0.70;99.90
13684;DHT22;6914;53.552;9.908;2023-02-26T08:18:02;-0.60;99.90
13684;DHT22;6914;53.552;9.908;2023-02-26T08:20:29;-1.10;99.90
13684;DHT22;6914;53.552;9.908;2023-02-26T08:22:57;-0.30;99.90
13684;DHT22;6914;53.552;9.908;2023-02-26T08:25:24;-0.20;99.90
13684;DHT22;6914;53.552;9.908;2023-02-26T08:27:50;0.20;99.90
13684;DHT22;6914;53.552;9.908;2023-02-26T08:30:18;0.00;99.90
13684;DHT22;6914;53.552;9.908;2023-02-26T08:32:45;-0.20;99.90
13684;DHT22;6914;53.552;9.908;2023-02-26T08:35:14;-0.20;99.90
13684;DHT22;6914;53.552;9.908;2023-02-26T08:37:41;-1.10;99.90
13684;DHT22;6914;53.552;9.908;2023-02-26T08:40:12;0.10;99.90
13684;DHT22;6914;53.552;9.908;2023-02-26T08:42:39;1.00;99.90
13684;DHT22;6914;53.552;9.908;2023-02-26T08:45:08;0.40;99.90
13684;DHT22;6914;53.552;9.908;2023-02-26T08:47:34;0.40;99.90
13684;DHT22;6914;53.552;9.908;2023-02-26T08:50:02;0.50;99.90
13684;DHT22;6914;53.552;9.908;2023-02-26T08:52:29;0.40;99.90
13684;DHT22;6914;53.552;9.908;2023-02-26T08:54:56;1.80;99.90
13684;DHT22;6914;53.552;9.908;2023-02-26T08:57:24;0.60;99.90
13684;DHT22;6914;53.552;9.908;2023-02-26T08:59:51;0.70;99.90
13684;DHT22;6914;53.552;9.908;2023-02-26T09:02:17;1.00;99.90
13684;DHT22;6914;53.552;9.908;2023-02-26T09:04:44;1.00;99.90
13684;DHT22;6914;53.552;9.908;2023-02-26T09:07:14;1.00;99.90
13684;DHT22;6914;53.552;9.908;2023-02-26T09:09:41;1.20;99.90
13684;DHT22;6914;53.552;9.908;2023-02-26T09:12:08;1.50;99.90
13684;DHT22;6914;53.552;9.908;2023-02-26T09:14:36;2.30;99.90
13684;DHT22;6914;53.552;9.908;2023-02-26T09:17:03;2.90;99.90
13684;DHT22;6914;53.552;9.908;2023-02-26T09:19:30;3.60;99.90
13684;DHT22;6914;53.552;9.908;2023-02-26T09:21:57;4.00;99.90
13684;DHT22;6914;53.552;9.908;2023-02-26T09:24:24;5.10;99.90
13684;DHT22;6914;53.552;9.908;2023-02-26T09:26:50;5.90;99.90
13684;DHT22;6914;53.552;9.908;2023-02-26T09:29:19;6.50;99.90
13684;DHT22;6914;53.552;9.908;2023-02-26T09:31:47;7.20;87.90
13684;DHT22;6914;53.552;9.908;2023-02-26T09:34:14;7.90;86.20
13684;DHT22;6914;53.552;9.908;2023-02-26T09:36:41;9.00;75.50
13684;DHT22;6914;53.552;9.908;2023-02-26T09:39:08;8.40;69.20
13684;DHT22;6914;53.552;9.908;2023-02-26T09:41:37;8.70;67.70
13684;DHT22;6914;53.552;9.908;2023-02-26T09:44:12;9.50;66.30
13684;DHT22;6914;53.552;9.908;2023-02-26T09:46:49;9.20;65.50
13684;DHT22;6914;53.552;9.908;2023-02-26T09:49:28;8.70;65.70
13684;DHT22;6914;53.552;9.908;2023-02-26T09:51:59;8.30;66.30
13684;DHT22;6914;53.552;9.908;2023-02-26T09:54:30;8.50;67.00
13684;DHT22;6914;53.552;9.908;2023-02-26T09:56:59;7.30;65.20
13684;DHT22;6914;53.552;9.908;2023-02-26T09:59:30;6.60;66.80
13684;DHT22;6914;53.552;9.908;2023-02-26T10:02:06;5.80;68.60
13684;DHT22;6914;53.552;9.908;2023-02-26T10:04:48;5.10;72.60
13684;DHT22;6914;53.552;9.908;2023-02-26T10:07:25;4.80;86.60
13684;DHT22;6914;53.552;9.908;2023-02-26T10:10:08;4.70;94.50
13684;DHT22;6914;53.552;9.908;2023-02-26T10:12:39;4.40;99.90
13684;DHT22;6914;53.552;9.908;2023-02-26T10:15:12;4.60;99.90
13684;DHT22;6914;53.552;9.908;2023-02-26T10:18:01;5.20;99.90
13684;DHT22;6914;53.552;9.908;2023-02-26T10:20:31;5.90;81.50
13684;DHT22;6914;53.552;9.908;2023-02-26T10:23:05;6.70;82.90
13684;DHT22;6914;53.552;9.908;2023-02-26T10:25:38;6.80;79.20
13684;DHT22;6914;53.552;9.908;2023-02-26T10:28:16;8.00;75.00
13684;DHT22;6914;53.552;9.908;2023-02-26T10:30:49;8.40;73.70
13684;DHT22;6914;53.552;9.908;2023-02-26T10:33:21;8.80;68.50
13684;DHT22;6914;53.552;9.908;2023-02-26T10:35:53;9.30;66.20
13684;DHT22;6914;53.552;9.908;2023-02-26T10:38:24;9.60;65.70
13684;DHT22;6914;53.552;9.908;2023-02-26T10:40:55;9.40;64.20
13684;DHT22;6914;53.552;9.908;2023-02-26T10:43:29;9.50;63.80
13684;DHT22;6914;53.552;9.908;2023-02-26T10:46:10;9.00;61.90
13684;DHT22;6914;53.552;9.908;2023-02-26T10:49:05;7.50;62.80
13684;DHT22;6914;53.552;9.908;2023-02-26T10:51:36;7.10;69.00
13684;DHT22;6914;53.552;9.908;2023-02-26T10:54:12;7.60;69.90
13684;DHT22;6914;53.552;9.908;2023-02-26T10:56:41;9.20;68.00
13684;DHT22;6914;53.552;9.908;2023-02-26T10:59:14;9.00;63.00
13684;DHT22;6914;53.552;9.908;2023-02-26T11:01:41;8.80;64.40
13684;DHT22;6914;53.552;9.908;2023-02-26T11:04:12;8.40;65.30
13684;DHT22;6914;53.552;9.908;2023-02-26T11:06:45;8.30;64.40
13684;DHT22;6914;53.552;9.908;2023-02-26T11:09:19;7.20;64.60
13684;DHT22;6914;53.552;9.908;2023-02-26T11:11:51;8.40;67.50
13684;DHT22;6914;53.552;9.908;2023-02-26T11:14:18;6.90;66.00
13684;DHT22;6914;53.552;9.908;2023-02-26T11:16:49;7.40;68.50
13684;DHT22;6914;53.552;9.908;2023-02-26T11:19:22;7.40;66.10
13684;DHT22;6914;53.552;9.908;2023-02-26T11:21:50;7.60;66.90
13684;DHT22;6914;53.552;9.908;2023-02-26T11:24:22;8.60;66.20
13684;DHT22;6914;53.552;9.908;2023-02-26T11:26:54;9.40;63.20
13684;DHT22;6914;53.552;9.908;2023-02-26T11:29:25;8.10;62.70
13684;DHT22;6914;53.552;9.908;2023-02-26T11:31:53;7.80;63.80
13684;DHT22;6914;53.552;9.908;2023-02-26T11:34:24;6.90;66.20
13684;DHT22;6914;53.552;9.908;2023-02-26T11:36:53;6.20;68.90
13684;DHT22;6914;53.552;9.908;2023-02-26T11:39:22;5.90;70.10
13684;DHT22;6914;53.552;9.908;2023-02-26T11:41:52;5.80;72.90
13684;DHT22;6914;53.552;9.908;2023-02-26T11:44:29;5.60;78.20
13684;DHT22;6914;53.552;9.908;2023-02-26T11:47:01;5.50;83.10
13684;DHT22;6914;53.552;9.908;2023-02-26T11:49:30;5.40;82.70
13684;DHT22;6914;53.552;9.908;2023-02-26T11:52:14;4.90;99.70
13684;DHT22;6914;53.552;9.908;2023-02-26T11:54:44;5.20;99.90
13684;DHT22;6914;53.552;9.908;2023-02-26T11:57:17;4.80;99.90
13684;DHT22;6914;53.552;9.908;2023-02-26T11:59:47;5.10;99.90
13684;DHT22;6914;53.552;9.908;2023-02-26T12:02:19;5.10;99.90
13684;DHT22;6914;53.552;9.908;2023-02-26T12:04:51;5.40;99.90
13684;DHT22;6914;53.552;9.908;2023-02-26T12:07:19;5.30;99.90
13684;DHT22;6914;53.552;9.908;2023-02-26T12:09:47;5.40;99.90
13684;DHT22;6914;53.552;9.908;2023-02-26T12:12:39;5.10;99.90
13684;DHT22;6914;53.552;9.908;2023-02-26T12:15:20;5.00;99.90
13684;DHT22;6914;53.552;9.908;2023-02-26T12:17:58;4.80;99.90
13684;DHT22;6914;53.552;9.908;2023-02-26T12:20:32;5.00;99.90
13684;DHT22;6914;53.552;9.908;2023-02-26T12:23:22;4.80;99.90
13684;DHT22;6914;53.552;9.908;2023-02-26T12:25:58;4.70;99.90
13684;DHT22;6914;53.552;9.908;2023-02-26T12:28:51;5.20;99.90
13684;DHT22;6914;53.552;9.908;2023-02-26T12:31:45;5.60;99.90
13684;DHT22;6914;53.552;9.908;2023-02-26T12:34:32;6.60;99.90
13684;DHT22;6914;53.552;9.908;2023-02-26T12:37:19;7.30;82.30
13684;DHT22;6914;53.552;9.908;2023-02-26T12:39:58;8.70;77.00
13684;DHT22;6914;53.552;9.908;2023-02-26T12:42:36;7.40;73.40
13684;DHT22;6914;53.552;9.908;2023-02-26T12:45:19;7.40;75.90
13684;DHT22;6914;53.552;9.908;2023-02-26T12:47:59;6.80;77.70
13684;DHT22;6914;53.552;9.908;2023-02-26T12:50:37;6.40;83.00
13684;DHT22;6914;53.552;9.908;2023-02-26T12:56:22;6.10;97.50
13684;DHT22;6914;53.552;9.908;2023-02-26T12:59:02;5.50;99.90
13684;DHT22;6914;53.552;9.908;2023-02-26T13:01:45;5.10;99.90
13684;DHT22;6914;53.552;9.908;2023-02-26T13:04:35;5.00;99.90
13684;DHT22;6914;53.552;9.908;2023-02-26T13:07:31;4.80;99.90
13684;DHT22;6914;53.552;9.908;2023-02-26T13:10:07;4.70;99.90
13684;DHT22;6914;53.552;9.908;2023-02-26T13:12:45;4.50;99.90
13684;DHT22;6914;53.552;9.908;2023-02-26T13:15:25;4.60;99.90
13684;DHT22;6914;53.552;9.908;2023-02-26T13:17:59;4.80;99.90
13684;DHT22;6914;53.552;9.908;2023-02-26T13:20:28;5.00;99.90
13684;DHT22;6914;53.552;9.908;2023-02-26T13:22:58;5.10;99.90
13684;DHT22;6914;53.552;9.908;2023-02-26T13:25:33;5.20;99.90
13684;DHT22;6914;53.552;9.908;2023-02-26T13:28:04;5.10;99.90
13684;DHT22;6914;53.552;9.908;2023-02-26T13:30:40;5.20;99.90
13684;DHT22;6914;53.552;9.908;2023-02-26T13:33:16;4.90;99.90
13684;DHT22;6914;53.552;9.908;2023-02-26T13:35:45;5.10;99.90
13684;DHT22;6914;53.552;9.908;2023-02-26T13:38:18;4.80;99.90
13684;DHT22;6914;53.552;9.908;2023-02-26T13:40:55;5.00;99.90
13684;DHT22;6914;53.552;9.908;2023-02-26T13:43:48;5.00;99.90
13684;DHT22;6914;53.552;9.908;2023-02-26T13:46:32;5.00;99.90
13684;DHT22;6914;53.552;9.908;2023-02-26T13:49:05;5.00;99.90
13684;DHT22;6914;53.552;9.908;2023-02-26T13:51:36;4.70;99.90
13684;DHT22;6914;53.552;9.908;2023-02-26T13:54:17;4.60;99.90
13684;DHT22;6914;53.552;9.908;2023-02-26T13:57:06;4.20;99.90
13684;DHT22;6914;53.552;9.908;2023-02-26T13:59:46;4.60;99.90
13684;DHT22;6914;53.552;9.908;2023-02-26T14:02:37;4.70;99.90
13684;DHT22;6914;53.552;9.908;2023-02-26T14:08:25;5.10;99.90
13684;DHT22;6914;53.552;9.908;2023-02-26T14:10:57;5.20;99.90
13684;DHT22;6914;53.552;9.908;2023-02-26T14:13:34;5.00;99.90
13684;DHT22;6914;53.552;9.908;2023-02-26T14:16:09;4.80;99.90
13684;DHT22;6914;53.552;9.908;2023-02-26T14:18:40;3.40;99.90
13684;DHT22;6914;53.552;9.908;2023-02-26T14:21:34;3.80;99.90
13684;DHT22;6914;53.552;9.908;2023-02-26T14:24:06;5.00;99.90
13684;DHT22;6914;53.552;9.908;2023-02-26T14:26:45;4.80;99.90
13684;DHT22;6914;53.552;9.908;2023-02-26T14:29:29;5.00;99.90
13684;DHT22;6914;53.552;9.908;2023-02-26T14:32:11;4.60;99.90
13684;DHT22;6914;53.552;9.908;2023-02-26T14:34:46;4.40;99.90
13684;DHT22;6914;53.552;9.908;2023-02-26T14:37:16;4.50;99.90
13684;DHT22;6914;53.552;9.908;2023-02-26T14:39:47;4.60;99.90
13684;DHT22;6914;53.552;9.908;2023-02-26T14:42:19;4.30;99.90
13684;DHT22;6914;53.552;9.908;2023-02-26T14:44:51;4.30;99.90
13684;DHT22;6914;53.552;9.908;2023-02-26T14:47:21;4.10;99.90
13684;DHT22;6914;53.552;9.908;2023-02-26T14:49:48;4.10;99.90
13684;DHT22;6914;53.552;9.908;2023-02-26T14:52:44;4.00;99.90
13684;DHT22;6914;53.552;9.908;2023-02-26T14:55:30;4.10;99.90
13684;DHT22;6914;53.552;9.908;2023-02-26T14:58:21;4.30;99.90
13684;DHT22;6914;53.552;9.908;2023-02-26T15:01:02;4.60;99.90
13684;DHT22;6914;53.552;9.908;2023-02-26T15:04:07;4.40;99.90
13684;DHT22;6914;53.552;9.908;2023-02-26T15:06:49;4.80;99.90
13684;DHT22;6914;53.552;9.908;2023-02-26T15:09:22;4.70;99.90
13684;DHT22;6914;53.552;9.908;2023-02-26T15:11:58;4.40;99.90
13684;DHT22;6914;53.552;9.908;2023-02-26T15:14:52;4.50;99.90
13684;DHT22;6914;53.552;9.908;2023-02-26T15:17:36;4.30;99.90
13684;DHT22;6914;53.552;9.908;2023-02-26T15:20:13;4.30;99.90
13684;DHT22;6914;53.552;9.908;2023-02-26T15:22:58;5.20;99.90
13684;DHT22;6914;53.552;9.908;2023-02-26T15:25:31;4.10;99.90
13684;DHT22;6914;53.552;9.908;2023-02-26T15:27:59;4.10;99.90
13684;DHT22;6914;53.552;9.908;2023-02-26T15:30:27;4.10;99.90
13684;DHT22;6914;53.552;9.908;2023-02-26T15:32:58;4.10;99.90
13684;DHT22;6914;53.552;9.908;2023-02-26T15:35:27;4.30;99.90
13684;DHT22;6914;53.552;9.908;2023-02-26T15:37:57;4.30;99.90
13684;DHT22;6914;53.552;9.908;2023-02-26T15:40:29;4.50;99.90
13684;DHT22;6914;53.552;9.908;2023-02-26T15:42:58;5.70;99.90
13684;DHT22;6914;53.552;9.908;2023-02-26T15:45:30;4.30;99.90
13684;DHT22;6914;53.552;9.908;2023-02-26T15:48:02;4.00;99.90
13684;DHT22;6914;53.552;9.908;2023-02-26T15:50:32;4.00;99.90
13684;DHT22;6914;53.552;9.908;2023-02-26T15:53:02;3.60;99.90
13684;DHT22;6914;53.552;9.908;2023-02-26T15:55:33;4.40;99.90
13684;DHT22;6914;53.552;9.908;2023-02-26T15:58:02;4.30;99.90
13684;DHT22;6914;53.552;9.908;2023-02-26T16:00:32;4.30;99.90
13684;DHT22;6914;53.552;9.908;2023-02-26T16:03:02;4.30;99.90
13684;DHT22;6914;53.552;9.908;2023-02-26T16:05:29;4.20;99.90
13684;DHT22;6914;53.552;9.908;2023-02-26T16:07:56;4.40;99.90
13684;DHT22;6914;53.552;9.908;2023-02-26T16:10:32;4.10;99.90
13684;DHT22;6914;53.552;9.908;2023-02-26T16:13:01;4.00;99.90
13684;DHT22;6914;53.552;9.908;2023-02-26T16:15:31;4.10;99.90
13684;DHT22;6914;53.552;9.908;2023-02-26T16:18:00;3.80;99.90
13684;DHT22;6914;53.552;9.908;2023-02-26T16:20:32;3.40;99.90
13684;DHT22;6914;53.552;9.908;2023-02-26T16:23:04;3.60;99.90
13684;DHT22;6914;53.552;9.908;2023-02-26T16:25:36;3.70;99.90
13684;DHT22;6914;53.552;9.908;2023-02-26T16:28:05;3.70;99.90
13684;DHT22;6914;53.552;9.908;2023-02-26T16:30:34;3.70;99.90